Terminal Aerodrome Forecast
Issued by NWS

Home | Current Version | Previous Version | Text Only | Print | Product List | Glossary On
Versions: 1 2 3 4 5 6 7 8 9 10 11 12 13 14
000
FTUS43 KEAX 201120
TAFSTJ
TAF
KSTJ 201120Z 2012/2112 32009KT P6SM BKN015
     FM201400 33010KT P6SM BKN035
     FM201700 33010KT P6SM SCT080
     FM210100 36005KT P6SM FEW250
      AMD NOT SKED=

USA.gov is the U.S. government's official web portal to all federal, state and local government web resources and services.